Time;durP1;ratioP1;P1;durP2;ratioP2;P2;SDS_P1;SDS_P2;PMS_P1;PMS_P2;Temp;Humidity;BMP_temperature;BMP_pressure;BME280_temperature;BME280_humidity;BME280_pressure;Samples;Min_cycle;Max_cycle;Signal;HPM_P1;HPM_P2
2021/08/29 00:02:09;;;;;;;4.53;1.00;;;14.90;99.90;;;;;;4989533;28;20037;-85
2021/08/29 00:04:34;;;;;;;3.72;0.90;;;14.90;99.90;;;;;;4989367;28;20034;-84
2021/08/29 00:07:00;;;;;;;4.45;1.05;;;15.00;99.90;;;;;;4989584;28;20287;-85
2021/08/29 00:09:26;;;;;;;6.35;0.90;;;15.00;99.90;;;;;;4989241;28;20038;-85
2021/08/29 00:11:51;;;;;;;3.95;1.08;;;15.00;99.90;;;;;;4989483;28;20022;-85
2021/08/29 00:14:17;;;;;;;6.63;0.90;;;15.00;99.90;;;;;;4989393;28;20084;-85
2021/08/29 00:16:42;;;;;;;4.15;0.93;;;15.00;99.90;;;;;;5005505;28;20034;-85
2021/08/29 00:19:08;;;;;;;3.50;0.60;;;15.00;99.90;;;;;;4989054;28;20037;-84
2021/08/29 00:21:34;;;;;;;3.40;0.68;;;15.00;99.90;;;;;;4989369;28;20023;-85
2021/08/29 00:23:59;;;;;;;7.18;0.95;;;15.10;99.90;;;;;;4989116;28;20038;-84
2021/08/29 00:26:25;;;;;;;6.15;1.83;;;15.10;99.90;;;;;;4988990;28;20030;-85
2021/08/29 00:28:50;;;;;;;4.68;0.85;;;15.10;99.90;;;;;;4989069;28;20106;-85
2021/08/29 00:31:16;;;;;;;3.38;0.77;;;15.10;99.90;;;;;;4989103;28;20090;-85
2021/08/29 00:33:42;;;;;;;4.22;0.82;;;15.00;99.90;;;;;;4989133;28;20034;-85
2021/08/29 00:36:08;;;;;;;3.70;0.73;;;15.10;99.90;;;;;;4989057;28;20124;-84
2021/08/29 00:38:34;;;;;;;5.63;0.82;;;15.10;99.90;;;;;;4972737;28;20038;-85
2021/08/29 00:40:59;;;;;;;4.60;1.20;;;15.10;99.90;;;;;;4972704;28;20094;-85
2021/08/29 00:43:25;;;;;;;4.75;0.90;;;15.10;99.90;;;;;;4989755;28;20110;-85
2021/08/29 00:45:52;;;;;;;2.78;0.80;;;15.10;99.90;;;;;;4973939;28;20022;-85
2021/08/29 00:48:19;;;;;;;6.55;1.17;;;15.20;99.90;;;;;;4989536;28;20054;-84
2021/08/29 00:50:45;;;;;;;6.53;1.02;;;15.10;99.90;;;;;;4973187;28;20034;-85
2021/08/29 00:53:16;;;;;;;3.58;0.85;;;15.10;99.90;;;;;;4988875;28;20049;-86
2021/08/29 00:55:46;;;;;;;7.03;1.23;;;15.10;99.90;;;;;;4988694;28;20034;-85
2021/08/29 00:58:12;;;;;;;5.10;1.08;;;15.20;99.90;;;;;;4988755;28;20050;-85
2021/08/29 01:00:42;;;;;;;7.00;1.40;;;15.20;99.90;;;;;;4972835;28;20022;-86
2021/08/29 01:03:14;;;;;;;8.80;1.45;;;15.20;99.90;;;;;;4972825;28;20034;-86
2021/08/29 01:05:46;;;;;;;6.93;1.17;;;15.20;99.90;;;;;;4988734;28;20041;-86
2021/08/29 01:08:25;;;;;;;9.82;1.55;;;15.20;99.90;;;;;;4973944;28;20065;-86
2021/08/29 01:11:13;;;;;;;11.07;1.48;;;15.20;99.90;;;;;;4988806;28;20125;-86
2021/08/29 01:13:45;;;;;;;5.80;1.40;;;15.20;99.90;;;;;;4988793;28;20065;-86
2021/08/29 01:16:16;;;;;;;8.55;1.20;;;15.20;99.90;;;;;;4972618;28;20184;-85
2021/08/29 01:18:53;;;;;;;5.50;1.08;;;15.10;99.90;;;;;;4970776;28;20047;-86
2021/08/29 01:21:23;;;;;;;5.18;0.90;;;15.20;99.90;;;;;;4969461;28;20019;-86
2021/08/29 01:24:05;;;;;;;9.02;1.08;;;15.10;99.90;;;;;;4969442;28;20082;-85
2021/08/29 01:26:54;;;;;;;6.20;1.38;;;15.10;99.90;;;;;;4969505;28;20026;-86
2021/08/29 01:29:24;;;;;;;6.30;1.15;;;15.10;99.90;;;;;;4969136;28;20036;-85
2021/08/29 01:31:51;;;;;;;7.50;1.10;;;15.10;99.90;;;;;;4969322;28;20031;-86
2021/08/29 01:34:18;;;;;;;9.57;1.02;;;15.20;99.90;;;;;;4969235;28;20038;-86
2021/08/29 01:36:56;;;;;;;5.32;1.00;;;15.10;99.90;;;;;;4954494;28;20035;-86
2021/08/29 01:39:22;;;;;;;8.50;1.20;;;15.20;99.90;;;;;;4968892;28;20566;-85
2021/08/29 01:41:52;;;;;;;5.57;1.27;;;15.20;99.90;;;;;;4969137;28;20279;-86
2021/08/29 01:44:21;;;;;;;8.25;0.93;;;15.20;99.90;;;;;;4969028;28;20303;-86
2021/08/29 01:46:47;;;;;;;7.45;1.23;;;15.20;99.90;;;;;;4968933;28;20094;-85
2021/08/29 01:49:14;;;;;;;11.38;1.85;;;15.20;99.90;;;;;;4966004;28;20074;-86
2021/08/29 01:51:42;;;;;;;6.25;1.20;;;15.20;99.90;;;;;;4972671;28;20042;-85
2021/08/29 01:54:28;;;;;;;7.45;1.42;;;15.20;99.90;;;;;;4974651;28;20037;-85
2021/08/29 01:57:15;;;;;;;7.43;1.55;;;15.20;99.90;;;;;;4990900;28;20556;-87
2021/08/29 01:59:53;;;;;;;7.40;1.95;;;15.20;99.90;;;;;;4973972;28;20034;-86
2021/08/29 02:02:20;;;;;;;6.28;1.50;;;15.30;99.90;;;;;;4992088;28;20030;-86
2021/08/29 02:04:48;;;;;;;4.00;0.82;;;15.30;99.90;;;;;;4991746;28;20040;-86
2021/08/29 02:07:37;;;;;;;9.20;1.45;;;15.30;99.90;;;;;;4976621;28;20060;-85
2021/08/29 02:10:19;;;;;;;9.10;1.88;;;15.30;99.90;;;;;;4976776;28;20034;-85
2021/08/29 02:12:53;;;;;;;5.45;1.38;;;15.30;99.90;;;;;;4991515;28;20030;-86
2021/08/29 02:15:34;;;;;;;6.28;1.35;;;15.30;99.90;;;;;;4991642;28;20058;-85
2021/08/29 02:18:05;;;;;;;4.82;1.08;;;15.20;99.90;;;;;;4991301;28;20073;-86
2021/08/29 02:20:32;;;;;;;6.20;1.40;;;15.30;99.90;;;;;;4991500;28;20038;-86
2021/08/29 02:22:59;;;;;;;7.22;1.45;;;15.30;99.90;;;;;;4991401;28;20034;-87
2021/08/29 02:25:25;;;;;;;8.85;1.25;;;15.30;99.90;;;;;;4975181;28;20037;-85
2021/08/29 02:27:52;;;;;;;5.47;1.25;;;15.30;99.90;;;;;;4975179;28;20042;-86
2021/08/29 02:30:19;;;;;;;9.07;1.63;;;15.20;99.90;;;;;;4975277;28;20045;-85
2021/08/29 02:32:47;;;;;;;5.70;1.45;;;15.30;99.90;;;;;;4975155;28;20060;-85
2021/08/29 02:35:13;;;;;;;4.57;2.03;;;15.30;99.90;;;;;;4975420;28;20027;-85
2021/08/29 02:37:47;;;;;;;6.88;1.55;;;15.30;99.90;;;;;;4976396;28;20043;-85
2021/08/29 02:40:15;;;;;;;8.25;1.98;;;15.20;99.90;;;;;;4990957;28;20379;-86
2021/08/29 02:42:41;;;;;;;8.85;2.38;;;15.20;99.90;;;;;;4991005;28;20030;-85
2021/08/29 02:45:12;;;;;;;9.48;2.13;;;15.20;99.90;;;;;;4975306;28;20053;-86
2021/08/29 02:47:39;;;;;;;7.40;1.50;;;15.30;99.90;;;;;;4974492;28;20085;-86
2021/08/29 02:50:06;;;;;;;5.57;1.30;;;15.30;99.90;;;;;;4991324;28;20030;-86
2021/08/29 02:52:37;;;;;;;;;;;15.30;99.90;;;;;;4991607;28;20054;-86
2021/08/29 02:55:04;;;;;;;9.23;1.90;;;15.30;99.90;;;;;;4974941;28;19914;-86
2021/08/29 02:57:33;;;;;;;5.43;1.30;;;15.30;99.90;;;;;;4974276;28;20027;-85
2021/08/29 03:00:18;;;;;;;10.25;2.00;;;15.20;99.90;;;;;;5007945;28;20050;-85
2021/08/29 03:02:45;;;;;;;8.00;1.52;;;15.30;99.90;;;;;;4990762;28;20050;-86
2021/08/29 03:05:12;;;;;;;8.57;1.90;;;15.30;99.90;;;;;;4990707;28;20034;-87
2021/08/29 03:07:39;;;;;;;7.25;1.27;;;15.30;99.90;;;;;;5006890;28;20030;-85
2021/08/29 03:10:06;;;;;;;5.18;1.58;;;15.30;99.90;;;;;;4974366;28;20101;-86
2021/08/29 03:12:32;;;;;;;6.53;1.92;;;15.30;99.90;;;;;;4973428;28;20441;-86
2021/08/29 03:15:30;;;;;;;10.30;2.00;;;15.30;99.90;;;;;;4994401;28;20122;-88
2021/08/29 03:18:00;;;;;;;5.35;1.40;;;15.30;99.90;;;;;;4971249;28;20039;-86
2021/08/29 03:20:27;;;;;;;5.70;1.27;;;15.30;99.90;;;;;;4987054;28;20391;-86
2021/08/29 03:22:54;;;;;;;7.15;1.42;;;15.30;99.90;;;;;;4970856;28;20093;-86
2021/08/29 03:25:20;;;;;;;4.07;1.52;;;15.30;99.90;;;;;;4971092;28;20129;-86
2021/08/29 03:27:46;;;;;;;12.05;1.67;;;15.30;99.90;;;;;;4986887;28;20035;-85
2021/08/29 03:30:13;;;;;;;7.30;1.55;;;15.30;99.90;;;;;;4970591;28;20435;-86
2021/08/29 03:32:40;;;;;;;6.97;1.20;;;15.20;99.90;;;;;;4970850;28;20035;-85
2021/08/29 03:35:13;;;;;;;8.52;2.55;;;15.20;99.90;;;;;;4971291;28;20037;-86
2021/08/29 03:37:45;;;;;;;4.90;1.38;;;15.20;99.90;;;;;;4971322;28;20035;-86
2021/08/29 03:40:13;;;;;;;7.22;1.02;;;15.20;99.90;;;;;;4970611;28;20447;-86
2021/08/29 03:42:40;;;;;;;6.28;1.80;;;15.20;99.90;;;;;;4986649;28;20065;-85
2021/08/29 03:45:08;;;;;;;8.80;1.77;;;15.20;99.90;;;;;;4970485;28;20046;-85
2021/08/29 03:47:35;;;;;;;8.15;1.60;;;15.20;99.90;;;;;;4954126;28;20050;-85
2021/08/29 03:50:02;;;;;;;4.75;1.27;;;15.10;99.90;;;;;;4970621;28;20031;-85
2021/08/29 03:52:34;;;;;;;8.15;1.77;;;15.10;99.90;;;;;;4970574;28;20117;-86
2021/08/29 03:55:16;;;;;;;6.63;1.27;;;15.10;99.90;;;;;;4972720;28;20030;-85
2021/08/29 03:57:43;;;;;;;11.05;1.70;;;15.10;99.90;;;;;;4970117;28;20038;-86
2021/08/29 04:00:09;;;;;;;5.40;1.10;;;15.20;99.90;;;;;;4970478;28;20030;-84
2021/08/29 04:02:57;;;;;;;4.90;1.50;;;15.10;99.90;;;;;;4970344;28;20065;-86
2021/08/29 04:05:46;;;;;;;6.50;1.40;;;15.10;99.90;;;;;;4955329;28;20045;-86
2021/08/29 04:08:15;;;;;;;6.82;1.38;;;15.10;99.90;;;;;;4970269;28;20031;-86
2021/08/29 04:10:43;;;;;;;5.72;0.95;;;15.10;99.90;;;;;;4970184;28;20037;-85
2021/08/29 04:13:11;;;;;;;6.28;0.93;;;15.10;99.90;;;;;;4970094;28;20027;-85
2021/08/29 04:15:56;;;;;;;11.73;1.48;;;15.10;99.90;;;;;;4972713;28;20065;-85
2021/08/29 04:18:23;;;;;;;9.23;1.42;;;15.10;99.90;;;;;;4985882;28;20124;-85
2021/08/29 04:20:51;;;;;;;6.70;1.17;;;15.10;99.90;;;;;;4973591;28;20030;-86
2021/08/29 04:23:17;;;;;;;8.32;1.63;;;15.10;99.90;;;;;;4973011;28;20030;-84
2021/08/29 04:25:43;;;;;;;5.78;1.10;;;15.10;99.90;;;;;;4989523;28;20438;-86
2021/08/29 04:28:09;;;;;;;5.53;1.27;;;15.10;99.90;;;;;;4973035;28;20056;-86
2021/08/29 04:30:35;;;;;;;4.97;1.23;;;15.20;99.90;;;;;;4973119;28;20026;-85
2021/08/29 04:33:01;;;;;;;6.30;0.85;;;15.10;99.90;;;;;;4973482;28;20049;-86
2021/08/29 04:35:50;;;;;;;7.60;1.40;;;15.10;99.90;;;;;;4976149;28;20113;-85
2021/08/29 04:38:15;;;;;;;10.50;1.35;;;15.20;99.90;;;;;;4989128;28;20061;-85
2021/08/29 04:40:41;;;;;;;9.45;1.23;;;15.20;99.90;;;;;;4973081;28;20455;-85
2021/08/29 04:43:06;;;;;;;4.03;0.88;;;15.20;99.90;;;;;;4973090;28;20085;-84
2021/08/29 04:45:34;;;;;;;4.28;1.00;;;15.20;99.90;;;;;;4973237;28;20038;-86
2021/08/29 04:48:06;;;;;;;4.63;0.90;;;15.20;99.90;;;;;;4988578;28;20057;-86
2021/08/29 04:50:33;;;;;;;4.60;1.08;;;15.20;99.90;;;;;;4989070;28;20109;-87
2021/08/29 04:53:01;;;;;;;5.22;1.23;;;15.20;99.90;;;;;;5005283;28;20410;-87
2021/08/29 04:55:27;;;;;;;7.57;1.60;;;15.30;99.90;;;;;;4988917;28;20032;-86
2021/08/29 04:57:53;;;;;;;8.63;1.17;;;15.20;99.90;;;;;;4988748;28;20038;-86
2021/08/29 05:00:18;;;;;;;6.50;1.13;;;15.30;99.90;;;;;;4971876;28;20026;-86
2021/08/29 05:02:47;;;;;;;4.97;1.48;;;15.30;99.90;;;;;;4988758;28;20483;-85
2021/08/29 05:05:13;;;;;;;5.60;0.90;;;15.30;99.90;;;;;;5004265;28;20037;-86
2021/08/29 05:07:39;;;;;;;11.93;2.08;;;15.30;99.90;;;;;;4988052;28;20026;-86
2021/08/29 05:10:06;;;;;;;4.97;1.00;;;15.40;99.90;;;;;;4988175;28;20034;-87
2021/08/29 05:12:42;;;;;;;5.80;1.08;;;15.40;99.90;;;;;;4973402;28;20034;-87
2021/08/29 05:15:08;;;;;;;9.55;1.42;;;15.40;99.90;;;;;;4988051;28;20581;-86
2021/08/29 05:17:33;;;;;;;4.22;0.95;;;15.40;99.90;;;;;;4971575;28;20138;-86
2021/08/29 05:19:59;;;;;;;9.63;1.10;;;15.40;99.90;;;;;;4987963;28;20030;-87
2021/08/29 05:22:43;;;;;;;4.32;1.13;;;15.40;99.90;;;;;;5005719;28;20038;-88
2021/08/29 05:25:38;;;;;;;4.55;0.93;;;15.50;99.90;;;;;;4952187;28;20141;-86
2021/08/29 05:28:05;;;;;;;9.88;0.90;;;15.50;99.90;;;;;;4988073;28;20026;-86
2021/08/29 05:30:31;;;;;;;8.05;1.60;;;15.50;99.90;;;;;;4971665;28;20061;-87
2021/08/29 05:32:56;;;;;;;8.80;0.90;;;15.50;99.90;;;;;;4972005;28;20030;-85
2021/08/29 05:35:22;;;;;;;6.28;0.88;;;15.60;99.90;;;;;;4988641;28;20037;-86
2021/08/29 05:37:48;;;;;;;5.78;1.13;;;15.50;99.90;;;;;;4991769;28;20038;-86
2021/08/29 05:40:32;;;;;;;7.85;0.82;;;15.60;99.90;;;;;;5009153;28;20513;-86
2021/08/29 05:43:16;;;;;;;5.88;0.88;;;15.60;99.90;;;;;;5008171;28;20061;-87
2021/08/29 05:45:42;;;;;;;6.35;1.00;;;15.60;99.90;;;;;;4975283;28;20030;-87
2021/08/29 05:48:07;;;;;;;7.88;0.98;;;15.70;99.90;;;;;;4974949;28;20058;-88
2021/08/29 05:50:34;;;;;;;4.40;0.93;;;15.70;99.90;;;;;;5007680;28;20027;-87
2021/08/29 05:53:00;;;;;;;7.57;1.00;;;15.70;99.90;;;;;;4991437;28;20041;-86
2021/08/29 05:55:26;;;;;;;7.25;0.95;;;15.70;99.90;;;;;;4991432;28;20420;-85
2021/08/29 05:57:53;;;;;;;5.57;0.80;;;15.70;99.90;;;;;;4975157;28;20042;-86
2021/08/29 06:00:19;;;;;;;6.38;0.90;;;15.70;99.90;;;;;;4974916;28;20029;-87
2021/08/29 06:02:48;;;;;;;4.00;0.73;;;15.80;99.90;;;;;;4991690;28;20029;-86
2021/08/29 06:05:13;;;;;;;8.00;1.45;;;15.70;99.90;;;;;;5007442;28;20034;-87
2021/08/29 06:07:54;;;;;;;10.38;1.08;;;15.80;99.90;;;;;;4977398;28;20035;-86
2021/08/29 06:10:21;;;;;;;8.05;1.35;;;15.70;99.90;;;;;;4974978;28;20033;-86
2021/08/29 06:12:47;;;;;;;6.53;0.70;;;15.70;99.90;;;;;;4975436;28;20057;-86
2021/08/29 06:15:12;;;;;;;4.65;0.65;;;15.80;99.90;;;;;;4975830;28;20491;-87
2021/08/29 06:17:38;;;;;;;6.90;1.08;;;15.70;99.90;;;;;;4992158;28;20046;-86
2021/08/29 06:20:05;;;;;;;6.60;0.70;;;15.80;99.90;;;;;;4974747;28;20030;-87
2021/08/29 06:22:30;;;;;;;6.80;1.25;;;15.70;99.90;;;;;;4974770;28;20117;-86
2021/08/29 06:25:14;;;;;;;9.02;0.95;;;15.80;99.90;;;;;;4993479;28;20041;-87
2021/08/29 06:27:59;;;;;;;6.50;0.70;;;15.80;99.90;;;;;;4993548;28;20041;-86
2021/08/29 06:30:43;;;;;;;5.68;0.98;;;15.80;99.90;;;;;;5006892;28;20033;-86
2021/08/29 06:33:36;;;;;;;4.50;1.00;;;15.80;99.90;;;;;;4994224;28;20106;-86
2021/08/29 06:36:05;;;;;;;6.03;0.80;;;15.80;99.90;;;;;;4990436;28;20022;-86
2021/08/29 06:38:31;;;;;;;6.20;0.85;;;15.80;99.90;;;;;;4974225;28;20070;-87
2021/08/29 06:40:57;;;;;;;6.47;0.80;;;15.80;99.90;;;;;;4974519;28;20036;-85
2021/08/29 06:43:23;;;;;;;7.90;0.70;;;15.80;99.90;;;;;;4974504;28;20120;-85
2021/08/29 06:45:51;;;;;;;6.70;0.80;;;15.80;99.90;;;;;;4990552;28;20030;-85
2021/08/29 06:48:35;;;;;;;9.32;0.88;;;15.80;99.90;;;;;;5006718;28;20065;-86
2021/08/29 06:51:19;;;;;;;5.68;0.75;;;15.80;99.90;;;;;;4992993;28;20082;-85
2021/08/29 06:54:03;;;;;;;9.43;1.05;;;15.80;99.90;;;;;;5008048;28;20099;-86
2021/08/29 06:56:48;;;;;;;6.28;1.67;;;15.80;99.90;;;;;;4992865;28;20033;-86
2021/08/29 06:59:20;;;;;;;11.73;1.52;;;15.80;99.90;;;;;;4991070;28;20041;-85
2021/08/29 07:01:46;;;;;;;11.30;1.17;;;15.80;99.90;;;;;;4989149;28;20026;-86
2021/08/29 07:04:12;;;;;;;7.95;0.70;;;15.80;99.90;;;;;;4990148;28;20145;-86
2021/08/29 07:06:38;;;;;;;10.05;1.67;;;15.90;99.90;;;;;;4990172;28;20030;-86
2021/08/29 07:09:40;;;;;;;5.97;0.90;;;15.90;99.90;;;;;;4916993;29;20020;-86
2021/08/29 07:12:07;;;;;;;8.20;0.80;;;16.00;99.90;;;;;;4962487;28;20035;-86
2021/08/29 07:14:52;;;;;;;6.93;1.45;;;16.00;99.90;;;;;;5006648;28;20061;-86
2021/08/29 07:17:18;;;;;;;6.78;0.98;;;16.00;99.90;;;;;;4982009;28;20038;-86
2021/08/29 07:19:45;;;;;;;3.72;0.70;;;16.00;99.90;;;;;;4970553;28;20490;-86
2021/08/29 07:22:29;;;;;;;7.50;0.70;;;16.00;99.90;;;;;;4973192;28;20046;-85
2021/08/29 07:25:13;;;;;;;4.90;0.80;;;16.00;99.90;;;;;;4973093;28;20045;-86
2021/08/29 07:28:03;;;;;;;8.38;1.00;;;16.00;99.90;;;;;;4972930;28;20053;-85
2021/08/29 07:30:47;;;;;;;5.40;0.73;;;16.00;99.90;;;;;;4973062;28;20111;-86
2021/08/29 07:33:16;;;;;;;6.47;0.77;;;15.90;99.90;;;;;;4970602;28;20058;-85
2021/08/29 07:36:00;;;;;;;5.07;0.60;;;15.90;99.90;;;;;;4972768;28;20133;-86
2021/08/29 07:38:33;;;;;;;6.47;0.70;;;15.90;99.90;;;;;;4970763;28;20043;-85
2021/08/29 07:40:59;;;;;;;8.95;1.23;;;15.90;99.90;;;;;;4970322;28;20055;-85
2021/08/29 07:43:24;;;;;;;7.18;1.23;;;15.90;99.90;;;;;;4986217;28;20027;-85
2021/08/29 07:45:50;;;;;;;8.35;1.00;;;15.90;99.90;;;;;;4970241;28;20030;-87
2021/08/29 07:48:16;;;;;;;7.05;1.13;;;15.90;99.90;;;;;;4978478;28;20135;-86
2021/08/29 07:50:42;;;;;;;9.38;0.75;;;15.90;99.90;;;;;;4972565;28;20395;-85
2021/08/29 07:53:07;;;;;;;9.68;0.95;;;15.90;99.90;;;;;;4978203;28;20031;-86
2021/08/29 07:55:39;;;;;;;8.02;1.42;;;15.90;99.90;;;;;;4983440;28;20052;-85
2021/08/29 07:58:21;;;;;;;7.43;1.45;;;15.90;99.90;;;;;;4988611;28;20053;-86
2021/08/29 08:00:52;;;;;;;7.00;0.98;;;15.80;99.90;;;;;;4979832;28;20067;-85
2021/08/29 08:03:33;;;;;;;4.85;0.65;;;15.60;99.90;;;;;;4981401;28;20054;-83
2021/08/29 08:06:31;;;;;;;9.90;0.77;;;15.50;99.90;;;;;;4990041;28;21020;-85
2021/08/29 08:09:23;;;;;;;5.47;0.90;;;15.30;99.90;;;;;;4969860;28;20046;-89
2021/08/29 08:12:07;;;;;;;10.45;0.95;;;15.20;99.90;;;;;;4973559;28;20097;-87
2021/08/29 08:14:33;;;;;;;6.20;0.75;;;15.20;99.90;;;;;;4953668;28;20109;-89
2021/08/29 08:16:59;;;;;;;6.80;0.90;;;15.10;99.90;;;;;;4955097;28;20032;-88
2021/08/29 08:19:32;;;;;;;3.42;1.20;;;15.10;99.90;;;;;;4975982;28;20044;-90
2021/08/29 08:21:58;;;;;;;6.50;0.93;;;15.00;99.90;;;;;;4987841;28;20030;-89
2021/08/29 08:24:39;;;;;;;4.55;0.80;;;15.10;99.90;;;;;;4978236;28;20049;-91
2021/08/29 08:27:24;;;;;;;6.05;0.80;;;15.10;99.90;;;;;;4995771;28;20053;-91
2021/08/29 08:30:09;;;;;;;6.97;0.77;;;15.10;99.90;;;;;;4991511;28;20045;-89
2021/08/29 08:32:55;;;;;;;8.68;1.08;;;15.10;99.90;;;;;;4991336;28;20073;-92
2021/08/29 08:36:07;;;;;;;5.80;0.80;;;15.10;99.90;;;;;;4979839;28;20398;-93
2021/08/29 08:38:57;;;;;;;6.28;0.80;;;15.20;99.90;;;;;;4975773;28;20122;-92
2021/08/29 08:41:28;;;;;;;7.13;0.73;;;15.20;99.90;;;;;;4973552;28;20035;-91
2021/08/29 08:44:14;;;;;;;4.78;1.08;;;15.20;99.90;;;;;;4991402;28;20026;-89
2021/08/29 08:47:01;;;;;;;6.00;0.85;;;15.10;99.90;;;;;;4991481;28;20042;-90
2021/08/29 08:49:54;;;;;;;6.07;1.02;;;15.10;99.90;;;;;;4966922;28;20066;-90
2021/08/29 08:52:39;;;;;;;7.28;1.00;;;15.20;99.90;;;;;;4985923;28;20090;-91
2021/08/29 08:55:24;;;;;;;5.85;1.10;;;15.20;99.90;;;;;;4980526;28;20041;-91
2021/08/29 08:58:19;;;;;;;4.75;1.10;;;15.20;99.90;;;;;;4999630;28;20096;-91
2021/08/29 09:01:03;;;;;;;7.30;1.38;;;15.30;99.90;;;;;;4998990;28;20077;-90
2021/08/29 09:03:55;;;;;;;8.73;1.63;;;15.20;99.90;;;;;;4988984;28;20078;-90
2021/08/29 09:06:24;;;;;;;9.15;1.00;;;15.30;99.90;;;;;;4973210;28;20371;-92
2021/08/29 09:08:50;;;;;;;8.68;1.35;;;15.30;99.90;;;;;;4972075;28;20054;-90
2021/08/29 09:11:15;;;;;;;7.07;0.85;;;15.30;99.90;;;;;;4974836;28;20070;-90
2021/08/29 09:14:02;;;;;;;4.95;0.70;;;15.40;99.90;;;;;;4976346;28;20034;-91
2021/08/29 09:16:29;;;;;;;4.75;1.13;;;15.50;99.90;;;;;;4975896;28;20042;-89
2021/08/29 09:18:58;;;;;;;8.30;1.38;;;15.50;99.90;;;;;;4992201;28;20108;-89
2021/08/29 09:21:36;;;;;;;10.65;1.73;;;15.50;99.90;;;;;;4992224;28;20053;-90
2021/08/29 09:24:10;;;;;;;6.20;0.80;;;15.50;99.90;;;;;;4992985;28;20097;-88
2021/08/29 09:27:00;;;;;;;6.95;0.82;;;15.50;99.90;;;;;;4994151;28;20031;-88
2021/08/29 09:29:42;;;;;;;6.60;0.75;;;15.60;99.90;;;;;;4993575;28;20117;-89
2021/08/29 09:32:22;;;;;;;4.93;0.80;;;15.60;99.90;;;;;;4974775;28;20038;-89
2021/08/29 09:35:10;;;;;;;7.75;0.95;;;15.60;99.90;;;;;;4972345;28;20030;-88
2021/08/29 09:38:10;;;;;;;6.53;0.90;;;15.60;99.90;;;;;;4948032;28;20088;-88
2021/08/29 09:40:43;;;;;;;5.13;0.68;;;15.60;99.90;;;;;;4985961;28;20054;-89
2021/08/29 09:43:13;;;;;;;5.95;0.80;;;15.70;99.90;;;;;;4973428;28;20030;-87
2021/08/29 09:45:45;;;;;;;5.68;0.50;;;15.60;99.90;;;;;;4979292;28;20023;-87
2021/08/29 09:48:29;;;;;;;7.28;0.80;;;15.70;99.90;;;;;;4979631;28;20054;-87
2021/08/29 09:51:16;;;;;;;10.32;1.52;;;15.70;99.90;;;;;;4987576;28;20027;-89
2021/08/29 09:54:33;;;;;;;5.53;0.60;;;15.80;99.90;;;;;;4981428;28;20505;-88
2021/08/29 09:57:28;;;;;;;9.82;0.90;;;15.90;99.90;;;;;;4986881;28;20042;-88
2021/08/29 10:00:08;;;;;;;5.22;0.60;;;15.90;99.90;;;;;;5003201;28;20133;-89
2021/08/29 10:02:42;;;;;;;5.45;0.70;;;15.80;99.90;;;;;;4960340;28;20058;-91
2021/08/29 10:05:20;;;;;;;4.18;0.60;;;15.90;99.90;;;;;;5007654;28;20038;-89
2021/08/29 10:08:11;;;;;;;3.58;0.70;;;15.80;99.90;;;;;;4988449;28;20031;-88
2021/08/29 10:11:04;;;;;;;6.85;0.80;;;15.70;99.90;;;;;;4980154;28;20065;-89
2021/08/29 10:13:30;;;;;;;6.97;0.50;;;15.80;99.90;;;;;;4975227;28;20030;-89
2021/08/29 10:16:15;;;;;;;6.63;0.50;;;15.80;99.90;;;;;;4977296;28;20030;-89
2021/08/29 10:18:59;;;;;;;6.00;0.88;;;15.70;99.90;;;;;;4974204;28;20108;-87
2021/08/29 10:21:45;;;;;;;2.78;0.43;;;15.70;99.90;;;;;;4973975;28;20042;-89
2021/08/29 10:24:12;;;;;;;2.10;0.40;;;15.70;99.90;;;;;;4972279;28;20035;-88
2021/08/29 10:26:41;;;;;;;3.33;0.70;;;15.70;99.90;;;;;;4987848;28;20027;-90
2021/08/29 10:29:28;;;;;;;4.32;0.80;;;15.60;99.90;;;;;;4987882;28;20043;-91
2021/08/29 10:32:03;;;;;;;6.55;1.00;;;15.70;99.90;;;;;;4986412;28;20050;-90
2021/08/29 10:34:33;;;;;;;6.88;0.50;;;15.70;99.90;;;;;;4986228;28;20495;-89
2021/08/29 10:37:00;;;;;;;2.55;0.50;;;15.70;99.90;;;;;;4987176;28;20098;-90
2021/08/29 10:39:45;;;;;;;3.40;0.50;;;15.70;99.90;;;;;;4993250;28;20163;-89
2021/08/29 10:42:27;;;;;;;2.25;0.50;;;15.80;99.90;;;;;;4992864;28;20069;-90
2021/08/29 10:45:25;;;;;;;3.60;0.60;;;15.80;99.90;;;;;;4995308;28;20037;-90
2021/08/29 10:48:23;;;;;;;4.32;0.82;;;15.70;99.90;;;;;;4994595;28;20066;-90
2021/08/29 10:50:57;;;;;;;6.30;0.55;;;15.80;99.90;;;;;;4991648;28;20031;-89
2021/08/29 10:53:36;;;;;;;3.58;0.65;;;15.90;99.90;;;;;;4990467;28;20105;-90
2021/08/29 10:56:14;;;;;;;3.50;0.57;;;15.90;99.90;;;;;;4975262;28;20054;-89
2021/08/29 10:58:43;;;;;;;4.60;0.55;;;15.90;99.90;;;;;;4990546;28;20042;-90
2021/08/29 11:01:35;;;;;;;4.05;0.50;;;15.90;99.90;;;;;;4990261;28;20553;-89
2021/08/29 11:04:42;;;;;;;3.28;0.60;;;15.90;99.90;;;;;;4928263;29;20158;-89
2021/08/29 11:07:47;;;;;;;4.30;0.60;;;16.00;99.90;;;;;;4915010;29;20051;-89
2021/08/29 11:10:38;;;;;;;4.30;0.50;;;15.90;99.90;;;;;;4970312;28;20406;-88
2021/08/29 11:13:32;;;;;;;3.42;0.50;;;16.00;99.90;;;;;;4989900;28;20026;-90
2021/08/29 11:16:09;;;;;;;3.55;0.50;;;16.00;99.90;;;;;;4989710;28;20124;-87
2021/08/29 11:19:00;;;;;;;4.68;0.60;;;16.00;99.90;;;;;;4987599;28;20039;-89
2021/08/29 11:21:34;;;;;;;2.75;0.52;;;16.20;99.90;;;;;;4954870;28;20041;-89
2021/08/29 11:24:45;;;;;;;2.28;0.50;;;16.10;99.90;;;;;;4973581;28;20042;-90
2021/08/29 11:27:34;;;;;;;5.15;0.93;;;16.20;99.90;;;;;;4970432;28;20483;-87
2021/08/29 11:30:26;;;;;;;5.15;0.68;;;16.20;99.90;;;;;;4973024;28;20031;-89
2021/08/29 11:33:14;;;;;;;3.05;0.60;;;16.20;99.90;;;;;;4985872;28;20031;-89
2021/08/29 11:35:51;;;;;;;3.15;0.70;;;16.30;99.90;;;;;;4954966;28;20078;-88
2021/08/29 11:38:52;;;;;;;3.72;0.70;;;16.30;99.90;;;;;;4986358;28;20066;-89
2021/08/29 11:41:18;;;;;;;5.00;0.80;;;16.30;99.90;;;;;;4986442;28;20030;-88
2021/08/29 11:43:47;;;;;;;5.40;1.02;;;16.20;99.90;;;;;;4986562;28;20050;-89
2021/08/29 11:46:41;;;;;;;4.00;1.20;;;16.30;99.90;;;;;;4971175;28;20125;-89
2021/08/29 11:49:20;;;;;;;4.05;0.90;;;16.30;99.90;;;;;;4904313;29;20049;-89
2021/08/29 11:51:52;;;;;;;3.03;1.02;;;16.40;99.90;;;;;;4890172;29;20045;-88
2021/08/29 11:54:21;;;;;;;3.25;0.80;;;16.40;99.90;;;;;;4906618;29;20033;-88
2021/08/29 11:56:59;;;;;;;3.72;0.80;;;16.50;99.90;;;;;;4894250;29;20037;-88
2021/08/29 11:59:34;;;;;;;5.10;0.80;;;16.50;99.90;;;;;;4894103;29;20096;-89
2021/08/29 12:02:39;;;;;;;2.40;0.80;;;16.50;99.90;;;;;;4893747;29;20060;-89
2021/08/29 12:05:11;;;;;;;3.50;0.98;;;16.60;99.90;;;;;;4893538;29;20058;-87
2021/08/29 12:08:01;;;;;;;4.32;1.13;;;16.60;99.90;;;;;;4908885;29;20063;-84
2021/08/29 12:10:47;;;;;;;5.30;1.13;;;16.70;99.90;;;;;;4907507;29;20043;-84
2021/08/29 12:13:41;;;;;;;4.40;1.20;;;16.70;99.90;;;;;;4871606;29;20069;-85
2021/08/29 12:17:12;;;;;;;4.93;1.83;;;16.70;99.90;;;;;;4891372;29;20036;-85
2021/08/29 12:20:01;;;;;;;3.65;1.08;;;16.70;99.90;;;;;;4902667;29;20044;-84
2021/08/29 12:23:16;;;;;;;4.80;1.40;;;16.70;99.90;;;;;;4892735;29;20454;-83
2021/08/29 12:25:59;;;;;;;4.85;1.27;;;16.60;99.90;;;;;;4941456;23;20061;-83
2021/08/29 12:29:02;;;;;;;4.35;1.20;;;16.60;99.90;;;;;;4997861;28;20114;-83
2021/08/29 12:31:44;;;;;;;2.33;0.80;;;16.50;99.90;;;;;;4987220;28;20065;-84
2021/08/29 12:34:14;;;;;;;6.07;1.05;;;16.60;99.90;;;;;;4984247;28;20037;-84
2021/08/29 12:37:06;;;;;;;3.90;1.08;;;16.50;99.90;;;;;;4983993;28;20045;-83
2021/08/29 12:39:33;;;;;;;4.25;1.42;;;16.50;99.90;;;;;;4987037;28;20049;-84
2021/08/29 12:42:20;;;;;;;2.85;1.30;;;16.60;99.90;;;;;;5004451;28;20037;-85
2021/08/29 12:44:59;;;;;;;4.30;1.20;;;16.70;99.90;;;;;;4987465;28;20030;-83
2021/08/29 12:47:26;;;;;;;4.32;1.05;;;16.90;99.90;;;;;;5000718;28;20053;-83
2021/08/29 12:49:53;;;;;;;3.65;1.17;;;17.00;99.90;;;;;;4970144;28;20036;-83
2021/08/29 12:52:26;;;;;;;6.50;1.40;;;17.10;99.90;;;;;;4970491;28;20110;-84
2021/08/29 12:54:52;;;;;;;3.25;1.08;;;17.00;99.90;;;;;;4987003;28;20058;-85
2021/08/29 12:57:25;;;;;;;1.55;0.63;;;17.30;99.90;;;;;;4986872;28;20046;-83
2021/08/29 12:59:56;;;;;;;3.75;0.90;;;17.40;99.90;;;;;;4969834;28;20085;-84
2021/08/29 13:02:22;;;;;;;3.25;0.70;;;17.30;99.90;;;;;;4987125;28;20146;-83
2021/08/29 13:04:50;;;;;;;3.05;0.80;;;17.20;99.90;;;;;;4986941;28;20100;-82
2021/08/29 13:07:17;;;;;;;2.13;0.80;;;17.20;99.90;;;;;;4970281;28;20026;-84
2021/08/29 13:09:43;;;;;;;1.90;0.68;;;17.20;99.90;;;;;;4985970;28;20039;-83
2021/08/29 13:12:22;;;;;;;5.50;0.70;;;17.10;99.90;;;;;;4986409;28;20030;-83
2021/08/29 13:14:48;;;;;;;2.42;0.75;;;17.20;99.90;;;;;;4970605;28;20034;-83
2021/08/29 13:17:19;;;;;;;3.00;0.60;;;17.30;99.90;;;;;;4970343;28;20364;-83
2021/08/29 13:20:06;;;;;;;1.20;0.50;;;17.40;99.90;;;;;;4969819;28;20061;-84
2021/08/29 13:22:35;;;;;;;5.18;0.60;;;17.40;99.90;;;;;;4986806;28;20110;-83
2021/08/29 13:25:25;;;;;;;3.45;0.65;;;17.50;99.90;;;;;;4970610;28;20051;-83
2021/08/29 13:27:53;;;;;;;2.85;0.70;;;17.40;99.90;;;;;;4970841;28;20053;-84